Time;durP1;ratioP1;P1;durP2;ratioP2;P2;SDS_P1;SDS_P2;PMS_P1;PMS_P2;Temp;Humidity;BMP_temperature;BMP_pressure;BME280_temperature;BME280_humidity;BME280_pressure;Samples;Min_cycle;Max_cycle;Signal;HPM_P1;HPM_P2
2023/04/18 00:00:50;;;;;;;13.05;7.35;;;6.40;81.40;;;;;;5000624;28;20547;-75
2023/04/18 00:03:15;;;;;;;12.35;7.72;;;6.40;81.70;;;;;;4997468;28;20030;-74
2023/04/18 00:05:42;;;;;;;14.43;8.15;;;6.40;82.50;;;;;;5007031;28;20131;-75
2023/04/18 00:08:08;;;;;;;14.63;8.68;;;6.40;83.00;;;;;;4993760;28;20132;-76
2023/04/18 00:10:33;;;;;;;17.30;9.50;;;6.40;83.20;;;;;;5013089;28;20500;-75
2023/04/18 00:12:59;;;;;;;17.90;10.20;;;6.50;83.60;;;;;;5002668;28;20292;-74
2023/04/18 00:15:24;;;;;;;22.63;11.82;;;6.50;84.00;;;;;;5011948;28;20030;-75
2023/04/18 00:17:51;;;;;;;15.73;9.88;;;6.50;84.30;;;;;;5005066;28;20046;-74
2023/04/18 00:20:16;;;;;;;19.88;12.05;;;6.50;84.30;;;;;;5004240;28;20121;-74
2023/04/18 00:22:42;;;;;;;19.33;11.85;;;6.50;84.50;;;;;;5001737;28;20049;-74
2023/04/18 00:25:09;;;;;;;18.38;11.73;;;6.50;84.90;;;;;;5005226;28;20037;-74
2023/04/18 00:27:36;;;;;;;20.60;12.13;;;6.50;84.60;;;;;;5003132;28;20069;-75
2023/04/18 00:30:02;;;;;;;19.30;10.85;;;6.60;84.70;;;;;;5015333;28;20030;-74
2023/04/18 00:32:28;;;;;;;20.20;12.27;;;6.60;85.10;;;;;;5009376;28;20030;-74
2023/04/18 00:34:53;;;;;;;21.60;11.57;;;6.60;85.00;;;;;;4992616;28;20026;-75
2023/04/18 00:37:19;;;;;;;18.50;12.38;;;6.60;84.90;;;;;;5003850;28;20129;-75
2023/04/18 00:39:44;;;;;;;19.27;12.23;;;6.60;84.80;;;;;;5008773;28;20121;-74
2023/04/18 00:42:10;;;;;;;19.98;12.23;;;6.50;85.10;;;;;;5000334;28;20103;-75
2023/04/18 00:44:35;;;;;;;18.77;11.75;;;6.60;84.90;;;;;;5019768;28;20032;-74
2023/04/18 00:47:01;;;;;;;20.70;11.77;;;6.60;85.00;;;;;;5016727;28;20025;-74
2023/04/18 00:49:27;;;;;;;18.38;11.90;;;6.60;84.90;;;;;;5004862;28;20210;-74
2023/04/18 00:51:54;;;;;;;18.00;11.18;;;6.50;85.10;;;;;;5003247;28;20372;-74
2023/04/18 00:54:21;;;;;;;18.67;11.65;;;6.50;85.20;;;;;;4998884;28;20105;-75
2023/04/18 00:56:47;;;;;;;17.80;11.95;;;6.50;85.50;;;;;;5004880;28;20029;-74
2023/04/18 00:59:13;;;;;;;18.90;11.82;;;6.50;85.40;;;;;;5000451;28;20061;-75
2023/04/18 01:01:38;;;;;;;20.30;12.48;;;6.40;85.40;;;;;;4996467;28;20605;-75
2023/04/18 01:04:05;;;;;;;25.38;12.57;;;6.30;85.90;;;;;;4996510;28;20014;-75
2023/04/18 01:06:30;;;;;;;20.58;12.25;;;6.30;86.00;;;;;;4993379;28;20418;-75
2023/04/18 01:08:56;;;;;;;21.38;12.75;;;6.30;86.40;;;;;;5001784;28;20026;-74
2023/04/18 01:11:22;;;;;;;20.42;13.05;;;6.20;86.50;;;;;;5002154;28;20101;-74
2023/04/18 01:14:05;;;;;;;18.75;12.60;;;6.20;86.70;;;;;;4999440;28;20117;-75
2023/04/18 01:16:35;;;;;;;20.63;12.65;;;6.20;86.60;;;;;;5012719;28;20053;-75
2023/04/18 01:19:02;;;;;;;20.10;13.00;;;6.20;86.80;;;;;;4992884;28;20045;-74
2023/04/18 01:21:32;;;;;;;21.60;13.05;;;6.10;86.70;;;;;;5001404;28;20053;-75
2023/04/18 01:24:10;;;;;;;24.83;13.95;;;6.10;87.10;;;;;;5013044;28;20105;-75
2023/04/18 01:26:36;;;;;;;21.83;13.15;;;6.10;87.30;;;;;;4997419;28;20026;-77
2023/04/18 01:29:01;;;;;;;21.65;13.10;;;6.10;87.50;;;;;;5003007;28;20038;-75
2023/04/18 01:31:27;;;;;;;21.73;13.95;;;6.10;87.50;;;;;;5003850;28;20041;-74
2023/04/18 01:33:52;;;;;;;23.40;14.18;;;6.10;87.50;;;;;;4997129;28;20069;-74
2023/04/18 01:36:17;;;;;;;20.88;13.98;;;6.10;87.40;;;;;;4997308;28;20026;-75
2023/04/18 01:38:43;;;;;;;20.10;13.57;;;6.10;87.40;;;;;;5003038;28;20533;-74
2023/04/18 01:41:09;;;;;;;27.83;15.43;;;6.10;87.70;;;;;;5003723;28;20038;-75
2023/04/18 01:43:34;;;;;;;22.25;14.75;;;6.10;87.80;;;;;;5002365;28;20041;-75
2023/04/18 01:45:59;;;;;;;26.58;15.35;;;6.10;87.70;;;;;;4998291;28;20057;-74
2023/04/18 01:48:25;;;;;;;27.65;15.45;;;6.10;87.70;;;;;;5007213;28;20551;-76
2023/04/18 01:50:50;;;;;;;31.58;16.42;;;6.10;88.00;;;;;;4998218;28;20148;-75
2023/04/18 01:53:16;;;;;;;27.40;17.35;;;6.10;88.20;;;;;;5008946;28;20042;-75
2023/04/18 01:55:42;;;;;;;27.05;17.02;;;6.10;88.00;;;;;;5004141;28;20343;-75
2023/04/18 01:58:07;;;;;;;31.08;18.00;;;6.10;88.30;;;;;;5000112;28;20082;-75
2023/04/18 02:00:33;;;;;;;28.35;17.65;;;6.10;88.50;;;;;;5007908;28;20113;-75
2023/04/18 02:02:58;;;;;;;28.52;16.42;;;6.00;88.30;;;;;;5000801;28;20033;-75
2023/04/18 02:05:26;;;;;;;32.00;19.15;;;6.00;88.50;;;;;;5002569;28;20093;-75
2023/04/18 02:07:51;;;;;;;29.77;18.58;;;6.00;88.50;;;;;;5012593;28;20025;-75
2023/04/18 02:10:17;;;;;;;28.35;17.38;;;6.00;88.30;;;;;;5008484;28;20034;-75
2023/04/18 02:12:43;;;;;;;28.95;18.48;;;6.00;88.60;;;;;;5003369;28;20042;-75
2023/04/18 02:15:09;;;;;;;33.08;19.95;;;6.00;88.40;;;;;;5004684;28;20068;-75
2023/04/18 02:17:35;;;;;;;32.97;19.70;;;5.90;88.30;;;;;;4995908;28;20415;-75
2023/04/18 02:20:01;;;;;;;29.02;19.60;;;5.90;88.60;;;;;;5002219;28;20022;-75
2023/04/18 02:22:26;;;;;;;34.35;19.95;;;5.90;88.60;;;;;;4994651;28;20030;-74
2023/04/18 02:24:51;;;;;;;38.03;20.25;;;5.90;88.60;;;;;;5000274;28;20030;-75
2023/04/18 02:27:17;;;;;;;33.38;19.77;;;5.80;88.40;;;;;;4991958;28;20313;-75
2023/04/18 02:29:43;;;;;;;36.75;19.73;;;5.80;88.70;;;;;;4996286;28;20041;-75
2023/04/18 02:32:08;;;;;;;32.72;20.35;;;5.80;88.70;;;;;;5001272;28;20036;-75
2023/04/18 02:34:35;;;;;;;38.55;21.17;;;5.70;88.50;;;;;;5006552;28;20091;-74
2023/04/18 02:37:01;;;;;;;41.92;21.05;;;5.70;89.00;;;;;;5004459;28;20113;-75
2023/04/18 02:39:26;;;;;;;34.88;21.48;;;5.70;88.90;;;;;;5003426;28;20554;-75
2023/04/18 02:41:52;;;;;;;35.20;21.63;;;5.60;88.90;;;;;;5001475;28;20026;-75
2023/04/18 02:44:17;;;;;;;44.25;23.23;;;5.60;89.40;;;;;;5001792;28;20033;-73
2023/04/18 02:46:43;;;;;;;41.10;23.50;;;5.50;89.20;;;;;;5000036;28;20443;-74
2023/04/18 02:49:08;;;;;;;40.83;22.90;;;5.50;89.40;;;;;;5004156;28;20111;-74
2023/04/18 02:51:33;;;;;;;37.97;22.02;;;5.40;89.50;;;;;;5004434;28;20050;-74
2023/04/18 02:53:59;;;;;;;43.00;23.63;;;5.30;89.70;;;;;;5003120;28;20565;-74
2023/04/18 02:56:24;;;;;;;40.40;22.98;;;5.20;90.00;;;;;;5000250;28;20386;-74
2023/04/18 02:58:50;;;;;;;40.80;24.40;;;5.20;90.00;;;;;;5006004;28;20041;-75
2023/04/18 03:01:16;;;;;;;40.75;24.63;;;5.10;90.20;;;;;;5000960;28;20102;-74
2023/04/18 03:03:42;;;;;;;39.80;24.90;;;5.10;90.30;;;;;;5003980;28;20113;-74
2023/04/18 03:06:07;;;;;;;40.67;23.52;;;5.00;90.40;;;;;;4998024;28;20464;-75
2023/04/18 03:08:33;;;;;;;39.38;22.05;;;5.00;90.50;;;;;;5001677;28;20123;-74
2023/04/18 03:10:58;;;;;;;40.63;25.23;;;5.00;90.50;;;;;;4990508;28;20125;-75
2023/04/18 03:13:24;;;;;;;41.75;24.42;;;5.00;90.40;;;;;;5007568;28;20128;-75
2023/04/18 03:15:50;;;;;;;43.38;24.20;;;4.90;90.40;;;;;;5002468;28;20382;-74
2023/04/18 03:18:15;;;;;;;40.50;25.08;;;4.80;90.50;;;;;;5007344;28;20404;-75
2023/04/18 03:20:41;;;;;;;40.45;26.00;;;4.80;90.60;;;;;;5006276;28;20026;-75
2023/04/18 03:23:07;;;;;;;40.58;24.85;;;4.70;90.60;;;;;;5001927;28;20084;-74
2023/04/18 03:25:33;;;;;;;42.03;24.42;;;4.70;90.70;;;;;;5003821;28;20030;-74
2023/04/18 03:27:59;;;;;;;43.45;24.88;;;4.70;90.70;;;;;;5006597;28;20094;-75
2023/04/18 03:30:25;;;;;;;46.22;25.90;;;4.60;90.70;;;;;;5003264;28;20581;-75
2023/04/18 03:32:54;;;;;;;42.20;26.25;;;4.60;90.80;;;;;;5000786;28;20096;-75
2023/04/18 03:35:20;;;;;;;47.22;25.77;;;4.60;91.20;;;;;;5001661;28;20038;-74
2023/04/18 03:37:46;;;;;;;40.20;24.13;;;4.50;91.10;;;;;;5005190;28;20619;-75
2023/04/18 03:40:11;;;;;;;44.08;25.08;;;4.50;91.30;;;;;;5003470;28;20366;-75
2023/04/18 03:42:37;;;;;;;45.45;25.15;;;4.50;91.40;;;;;;5005565;28;20089;-75
2023/04/18 03:45:02;;;;;;;45.78;26.73;;;4.40;91.70;;;;;;5003350;28;20097;-75
2023/04/18 03:47:30;;;;;;;48.50;26.98;;;4.50;91.70;;;;;;5003342;28;20335;-75
2023/04/18 03:49:55;;;;;;;44.78;26.52;;;4.50;92.00;;;;;;4998888;28;20036;-75
2023/04/18 03:52:21;;;;;;;47.70;26.10;;;4.40;91.90;;;;;;5002977;28;20113;-74
2023/04/18 03:54:46;;;;;;;47.17;26.27;;;4.40;92.00;;;;;;5005793;28;20121;-74
2023/04/18 03:57:12;;;;;;;46.88;26.58;;;4.40;92.10;;;;;;5000260;28;20086;-75
2023/04/18 03:59:37;;;;;;;49.70;27.05;;;4.40;92.10;;;;;;5007968;28;20026;-75
2023/04/18 04:02:03;;;;;;;52.53;29.00;;;4.40;92.30;;;;;;4996217;28;20092;-75
2023/04/18 04:04:28;;;;;;;51.70;28.27;;;4.40;92.30;;;;;;5001909;28;20558;-74
2023/04/18 04:06:54;;;;;;;50.60;27.10;;;4.40;92.30;;;;;;4999162;28;20232;-75
2023/04/18 04:09:19;;;;;;;54.58;28.90;;;4.30;92.40;;;;;;5000393;28;20022;-75
2023/04/18 04:11:45;;;;;;;55.47;27.67;;;4.30;92.60;;;;;;4995683;28;20037;-75
2023/04/18 04:14:10;;;;;;;49.22;26.77;;;4.40;92.70;;;;;;5000330;28;20054;-74
2023/04/18 04:16:36;;;;;;;48.25;27.20;;;4.30;92.60;;;;;;4998539;28;20048;-74
2023/04/18 04:19:01;;;;;;;49.05;27.70;;;4.30;92.60;;;;;;5003776;28;20044;-75
2023/04/18 04:21:29;;;;;;;49.70;27.77;;;4.20;92.70;;;;;;4997203;28;20859;-74
2023/04/18 04:23:54;;;;;;;53.85;29.73;;;4.20;93.00;;;;;;4996407;28;20343;-74
2023/04/18 04:26:21;;;;;;;57.33;29.63;;;4.20;93.20;;;;;;5001575;28;20029;-74
2023/04/18 04:28:47;;;;;;;53.28;29.95;;;4.20;93.20;;;;;;5003743;28;20022;-80
2023/04/18 04:31:15;;;;;;;51.05;28.00;;;4.20;93.20;;;;;;4997089;28;20320;-77
2023/04/18 04:33:41;;;;;;;61.25;29.42;;;4.20;93.30;;;;;;4994400;28;20176;-78
2023/04/18 04:36:07;;;;;;;50.85;29.05;;;4.20;93.40;;;;;;4993111;28;20427;-77
2023/04/18 04:38:40;;;;;;;57.78;29.88;;;4.10;93.30;;;;;;5000309;28;20120;-77
2023/04/18 04:41:06;;;;;;;51.92;29.40;;;4.10;93.50;;;;;;5002195;28;20029;-77
2023/04/18 04:43:32;;;;;;;55.85;29.95;;;4.10;93.60;;;;;;4996642;28;20061;-77
2023/04/18 04:45:58;;;;;;;55.67;30.50;;;4.10;93.60;;;;;;5004677;28;20153;-78
2023/04/18 04:48:24;;;;;;;58.70;30.48;;;4.20;93.60;;;;;;4997944;28;20399;-77
2023/04/18 04:50:57;;;;;;;55.30;29.90;;;4.20;93.60;;;;;;5001125;28;20124;-76
2023/04/18 04:53:25;;;;;;;60.60;30.80;;;4.20;93.90;;;;;;5003207;28;20079;-78
2023/04/18 04:55:50;;;;;;;56.72;30.35;;;4.20;93.80;;;;;;5006376;28;20109;-77
2023/04/18 04:58:16;;;;;;;59.47;30.45;;;4.20;93.70;;;;;;5017978;28;20447;-77
2023/04/18 05:00:42;;;;;;;55.75;30.08;;;4.20;93.80;;;;;;4997263;28;20041;-78
2023/04/18 05:03:07;;;;;;;54.88;28.15;;;4.30;93.90;;;;;;5001581;28;20140;-79
2023/04/18 05:05:33;;;;;;;55.13;29.77;;;4.30;93.80;;;;;;5003512;28;20108;-78
2023/04/18 05:07:58;;;;;;;50.55;29.13;;;4.30;93.70;;;;;;5005503;28;20029;-79
2023/04/18 05:10:24;;;;;;;49.33;28.55;;;4.40;93.70;;;;;;5005728;28;20342;-79
2023/04/18 05:12:49;;;;;;;56.75;29.73;;;4.40;93.60;;;;;;5002267;28;20102;-76
2023/04/18 05:15:15;;;;;;;50.67;29.50;;;4.40;93.40;;;;;;5007244;28;20045;-78
2023/04/18 05:17:41;;;;;;;53.30;28.15;;;4.40;93.50;;;;;;5018317;28;20437;-78
2023/04/18 05:20:08;;;;;;;46.25;26.98;;;4.50;93.40;;;;;;5012569;28;20091;-78
2023/04/18 05:22:34;;;;;;;52.60;28.05;;;4.50;93.30;;;;;;5013402;28;20034;-77
2023/04/18 05:25:00;;;;;;;45.85;26.90;;;4.50;93.10;;;;;;5008451;28;20025;-77
2023/04/18 05:27:26;;;;;;;52.17;28.00;;;4.60;93.10;;;;;;5000454;28;20131;-78
2023/04/18 05:29:51;;;;;;;46.55;27.45;;;4.60;93.00;;;;;;5003819;28;20362;-77
2023/04/18 05:32:17;;;;;;;50.28;27.00;;;4.60;92.80;;;;;;5009032;28;20390;-77
2023/04/18 05:34:43;;;;;;;45.75;25.52;;;4.70;92.80;;;;;;5003222;28;20021;-78
2023/04/18 05:37:08;;;;;;;47.72;26.05;;;4.80;92.70;;;;;;5006916;28;20078;-77
2023/04/18 05:39:34;;;;;;;42.00;24.38;;;4.80;92.50;;;;;;5005623;28;20038;-78
2023/04/18 05:42:00;;;;;;;42.58;24.20;;;4.80;92.60;;;;;;5007006;28;20392;-77
2023/04/18 05:44:25;;;;;;;42.80;24.58;;;4.90;92.30;;;;;;5006990;28;20030;-77
2023/04/18 05:46:51;;;;;;;47.50;25.42;;;5.00;92.10;;;;;;5008578;28;20026;-77
2023/04/18 05:49:20;;;;;;;41.58;23.67;;;5.00;91.80;;;;;;5005922;28;20022;-77
2023/04/18 05:51:48;;;;;;;42.17;23.13;;;5.00;91.40;;;;;;4996513;28;20038;-77
2023/04/18 05:54:13;;;;;;;38.53;21.77;;;5.10;91.40;;;;;;4991587;28;20056;-78
2023/04/18 05:56:39;;;;;;;40.42;22.08;;;5.20;90.90;;;;;;4998124;28;20415;-77
2023/04/18 05:59:04;;;;;;;38.60;22.50;;;5.30;90.60;;;;;;4996557;28;20182;-77
2023/04/18 06:01:31;;;;;;;38.13;21.42;;;5.30;90.40;;;;;;5003466;28;20191;-78
2023/04/18 06:03:56;;;;;;;34.15;20.48;;;5.50;90.10;;;;;;4998833;28;20096;-77
2023/04/18 06:06:22;;;;;;;34.78;20.00;;;5.50;89.90;;;;;;5002365;28;20447;-78
2023/04/18 06:08:47;;;;;;;36.85;20.15;;;5.60;89.50;;;;;;4998184;28;20030;-78
2023/04/18 06:11:14;;;;;;;36.35;20.17;;;5.70;89.40;;;;;;5004405;28;20466;-78
2023/04/18 06:13:39;;;;;;;30.10;18.38;;;5.80;88.70;;;;;;5003430;28;20028;-77
2023/04/18 06:16:06;;;;;;;31.88;18.42;;;5.80;88.50;;;;;;5005868;28;20117;-77
2023/04/18 06:18:31;;;;;;;32.40;17.63;;;5.90;87.90;;;;;;4999382;28;22126;-78
2023/04/18 06:20:57;;;;;;;26.13;16.08;;;6.10;87.70;;;;;;4998439;28;20041;-77
2023/04/18 06:23:22;;;;;;;27.60;17.25;;;6.10;86.90;;;;;;4997081;28;20103;-78
2023/04/18 06:25:48;;;;;;;26.48;15.77;;;6.20;87.40;;;;;;5005444;28;20030;-78
2023/04/18 06:28:13;;;;;;;25.27;14.82;;;6.40;86.50;;;;;;5004412;28;20404;-78
2023/04/18 06:30:39;;;;;;;28.33;16.52;;;6.50;86.40;;;;;;5009757;28;20455;-78
2023/04/18 06:33:04;;;;;;;24.38;14.13;;;6.50;85.40;;;;;;5016428;28;20342;-79
2023/04/18 06:35:30;;;;;;;25.15;14.82;;;6.70;85.30;;;;;;4999400;28;20029;-79
2023/04/18 06:37:56;;;;;;;25.13;13.77;;;6.80;84.00;;;;;;5006776;28;20115;-78
2023/04/18 06:40:21;;;;;;;26.98;13.63;;;6.70;82.30;;;;;;5007873;28;20018;-77
2023/04/18 06:42:47;;;;;;;20.48;12.75;;;6.80;82.20;;;;;;5000659;28;20424;-78
2023/04/18 06:45:12;;;;;;;22.35;12.85;;;6.90;80.50;;;;;;5001078;28;20045;-78
2023/04/18 06:47:39;;;;;;;18.98;12.50;;;7.30;81.40;;;;;;5003297;28;20030;-79
2023/04/18 06:50:06;;;;;;;23.17;13.93;;;7.80;81.10;;;;;;5001690;28;20327;-78
2023/04/18 06:52:31;;;;;;;20.63;11.60;;;7.90;79.50;;;;;;4994835;28;20214;-78
2023/04/18 06:54:57;;;;;;;21.75;12.10;;;8.10;78.10;;;;;;4997070;28;20109;-76
2023/04/18 06:57:22;;;;;;;18.98;12.10;;;8.60;77.20;;;;;;5002737;28;20040;-80
2023/04/18 06:59:48;;;;;;;20.45;12.40;;;8.60;74.60;;;;;;5007069;28;20567;-80
2023/04/18 07:02:14;;;;;;;25.02;12.57;;;8.60;74.60;;;;;;5002359;28;20054;-79
2023/04/18 07:04:39;;;;;;;23.75;11.50;;;8.90;76.00;;;;;;4999221;28;20324;-79
2023/04/18 07:07:05;;;;;;;23.33;10.93;;;9.00;74.20;;;;;;5001286;28;20077;-80
2023/04/18 07:09:31;;;;;;;18.40;10.32;;;9.20;73.10;;;;;;5002350;28;20038;-79
2023/04/18 07:11:56;;;;;;;16.67;10.38;;;9.20;70.20;;;;;;5004330;28;20343;-80
2023/04/18 07:14:23;;;;;;;17.58;9.73;;;9.20;68.80;;;;;;5004776;28;20422;-79
2023/04/18 07:16:49;;;;;;;21.00;10.27;;;9.40;69.60;;;;;;5001409;28;20050;-80
2023/04/18 07:19:15;;;;;;;17.10;10.00;;;9.10;68.20;;;;;;4995877;28;20033;-80
2023/04/18 07:21:42;;;;;;;18.38;10.30;;;9.10;68.40;;;;;;4997316;28;20030;-80
2023/04/18 07:24:08;;;;;;;14.15;9.27;;;9.20;68.20;;;;;;5001081;28;20120;-80
2023/04/18 07:26:34;;;;;;;15.38;10.45;;;9.20;67.80;;;;;;4998406;28;20029;-80
2023/04/18 07:29:00;;;;;;;17.50;9.77;;;9.40;69.00;;;;;;4997583;28;20667;-80
2023/04/18 07:31:27;;;;;;;15.52;9.32;;;9.50;68.90;;;;;;4997514;28;20105;-81
2023/04/18 07:33:53;;;;;;;15.32;8.90;;;9.80;70.00;;;;;;4998031;28;20129;-80
2023/04/18 07:36:18;;;;;;;14.65;8.20;;;9.80;66.80;;;;;;5005950;28;20080;-80
2023/04/18 07:38:45;;;;;;;13.48;8.25;;;10.10;67.10;;;;;;5008574;28;20430;-80
2023/04/18 07:41:10;;;;;;;12.43;7.90;;;10.00;67.70;;;;;;4999387;28;20050;-80
2023/04/18 07:43:37;;;;;;;13.32;7.90;;;10.20;67.30;;;;;;4999180;28;20064;-81
2023/04/18 07:46:03;;;;;;;11.70;7.65;;;10.30;67.30;;;;;;5005121;28;20044;-81
2023/04/18 07:48:29;;;;;;;13.73;6.88;;;10.50;64.80;;;;;;5002426;28;20110;-78
2023/04/18 07:50:54;;;;;;;11.52;5.40;;;10.40;65.10;;;;;;5001701;28;20026;-78
2023/04/18 07:53:20;;;;;;;9.20;5.30;;;10.30;64.10;;;;;;5003124;28;20113;-78
2023/04/18 07:55:45;;;;;;;8.48;4.70;;;10.80;66.50;;;;;;4997071;28;20068;-78
2023/04/18 07:58:11;;;;;;;5.93;4.10;;;11.20;63.90;;;;;;5001380;28;20041;-79
2023/04/18 08:00:38;;;;;;;8.65;4.22;;;11.00;63.40;;;;;;5002296;28;20054;-79
2023/04/18 08:03:04;;;;;;;6.05;3.60;;;11.40;63.40;;;;;;5016945;28;20026;-80
2023/04/18 08:05:30;;;;;;;8.25;4.03;;;11.70;62.10;;;;;;4994289;28;20085;-79
2023/04/18 08:07:55;;;;;;;8.00;4.28;;;11.80;60.70;;;;;;4996154;28;20057;-80
2023/04/18 08:10:21;;;;;;;6.78;3.67;;;11.60;61.10;;;;;;5002326;28;20351;-80
2023/04/18 08:12:46;;;;;;;7.53;4.13;;;11.40;60.00;;;;;;5002949;28;20109;-82
2023/04/18 08:15:12;;;;;;;7.97;4.28;;;11.60;62.30;;;;;;5001793;28;20060;-81
2023/04/18 08:17:37;;;;;;;7.40;4.43;;;11.70;62.10;;;;;;5010624;28;20042;-81
2023/04/18 08:20:06;;;;;;;7.25;4.13;;;11.40;60.50;;;;;;5008181;28;20120;-81
2023/04/18 08:22:31;;;;;;;6.60;3.90;;;11.90;59.10;;;;;;4999591;28;20477;-81
2023/04/18 08:24:57;;;;;;;7.13;4.10;;;12.30;60.00;;;;;;4999868;28;20155;-81
2023/04/18 08:27:22;;;;;;;10.70;4.63;;;12.70;58.90;;;;;;5011279;28;20349;-82
2023/04/18 08:29:48;;;;;;;9.25;4.53;;;12.40;57.90;;;;;;4999739;28;20042;-82
2023/04/18 08:32:13;;;;;;;7.50;4.57;;;12.80;59.60;;;;;;5014465;28;20037;-82
2023/04/18 08:34:39;;;;;;;8.48;4.32;;;12.80;59.30;;;;;;5008361;28;20033;-81
2023/04/18 08:37:04;;;;;;;11.00;5.65;;;13.10;58.30;;;;;;5017923;28;20133;-81
2023/04/18 08:39:30;;;;;;;9.13;5.28;;;12.60;57.50;;;;;;5006317;28;20164;-81
2023/04/18 08:41:58;;;;;;;10.63;5.57;;;12.70;59.80;;;;;;4994675;28;20026;-81
2023/04/18 08:44:27;;;;;;;8.30;5.00;;;13.00;58.90;;;;;;5005301;28;20129;-82
2023/04/18 08:46:53;;;;;;;7.53;4.60;;;12.70;59.10;;;;;;5010992;28;20109;-81
2023/04/18 08:49:20;;;;;;;9.80;4.97;;;12.90;58.10;;;;;;5000723;28;20126;-81
2023/04/18 08:51:48;;;;;;;8.00;4.32;;;13.20;59.10;;;;;;5005227;28;20442;-81
2023/04/18 08:54:14;;;;;;;7.70;4.10;;;13.10;58.10;;;;;;5006347;28;20057;-81
2023/04/18 08:56:41;;;;;;;10.32;4.90;;;13.60;58.10;;;;;;5004406;28;20101;-82
2023/04/18 08:59:06;;;;;;;9.00;4.80;;;13.60;56.60;;;;;;5007672;28;20017;-81
2023/04/18 09:01:55;;;;;;;10.43;5.00;;;13.20;56.60;;;;;;5012813;28;20369;-79
2023/04/18 09:04:37;;;;;;;6.60;4.45;;;13.30;57.00;;;;;;5002651;28;20327;-81
2023/04/18 09:07:05;;;;;;;7.22;4.70;;;12.70;58.40;;;;;;5007602;28;20033;-80
2023/04/18 09:09:45;;;;;;;9.63;5.10;;;12.80;59.50;;;;;;5008321;28;20327;-80
2023/04/18 09:12:13;;;;;;;10.15;4.45;;;12.40;59.80;;;;;;4998917;28;20524;-80
2023/04/18 09:14:44;;;;;;;7.65;4.32;;;12.30;59.80;;;;;;5003948;28;20089;-80
2023/04/18 09:17:12;;;;;;;9.02;4.40;;;11.70;59.90;;;;;;5007110;28;20022;-80
2023/04/18 09:19:45;;;;;;;6.45;4.10;;;11.80;61.40;;;;;;5004304;28;20072;-81
2023/04/18 09:22:12;;;;;;;8.90;4.57;;;11.80;61.20;;;;;;5007677;28;20029;-81
2023/04/18 09:24:38;;;;;;;7.13;4.22;;;11.70;60.00;;;;;;5011229;28;20103;-81
2023/04/18 09:27:13;;;;;;;9.95;5.28;;;12.10;61.10;;;;;;5000614;28;20019;-80
2023/04/18 09:29:46;;;;;;;13.45;4.82;;;12.20;61.70;;;;;;5002889;28;20127;-80
2023/04/18 09:32:27;;;;;;;11.57;5.40;;;12.00;61.40;;;;;;5009825;28;20438;-80
2023/04/18 09:34:56;;;;;;;9.88;5.32;;;12.00;61.40;;;;;;5002658;28;20026;-80
2023/04/18 09:37:23;;;;;;;10.82;5.20;;;11.60;63.10;;;;;;5007900;28;20030;-80
2023/04/18 09:39:52;;;;;;;8.63;4.90;;;11.70;62.60;;;;;;5009128;28;20037;-80
2023/04/18 09:42:18;;;;;;;9.80;5.28;;;11.80;63.40;;;;;;5005306;28;20183;-80
2023/04/18 09:45:07;;;;;;;9.25;5.32;;;12.10;63.40;;;;;;4998609;28;20034;-80
2023/04/18 09:47:34;;;;;;;8.95;5.40;;;12.00;63.00;;;;;;5008024;28;20096;-81
2023/04/18 09:50:07;;;;;;;9.50;4.70;;;11.90;62.70;;;;;;4997781;28;20042;-80
2023/04/18 09:52:35;;;;;;;7.97;4.80;;;11.60;63.20;;;;;;4989724;28;20034;-80
2023/04/18 09:55:03;;;;;;;8.48;4.40;;;11.60;64.10;;;;;;4996000;28;20439;-80
2023/04/18 09:57:31;;;;;;;8.07;4.55;;;11.50;62.70;;;;;;4997559;28;20057;-81
2023/04/18 09:59:58;;;;;;;7.90;4.20;;;11.20;63.20;;;;;;5005111;28;20041;-80
2023/04/18 10:02:27;;;;;;;6.47;4.25;;;11.10;63.50;;;;;;5005441;28;20030;-81
2023/04/18 10:04:54;;;;;;;7.38;4.13;;;11.10;63.20;;;;;;5008910;28;20034;-80
2023/04/18 10:07:20;;;;;;;9.80;4.82;;;11.00;63.10;;;;;;5005476;28;20116;-81
2023/04/18 10:09:47;;;;;;;6.78;4.15;;;11.00;64.70;;;;;;5008023;28;20179;-80
2023/04/18 10:12:14;;;;;;;7.00;3.90;;;10.90;64.10;;;;;;4998928;28;20030;-80
2023/04/18 10:14:42;;;;;;;6.32;3.33;;;11.20;63.60;;;;;;5005681;28;20049;-79
2023/04/18 10:17:08;;;;;;;6.00;3.25;;;11.60;61.50;;;;;;5007622;28;20104;-80
2023/04/18 10:19:34;;;;;;;4.65;3.20;;;11.40;60.70;;;;;;5005964;28;20133;-79
2023/04/18 10:22:00;;;;;;;6.15;3.28;;;11.60;61.20;;;;;;5008087;28;20083;-80
2023/04/18 10:24:48;;;;;;;5.35;3.30;;;11.70;61.20;;;;;;5008174;28;20180;-79
2023/04/18 10:27:17;;;;;;;5.45;3.30;;;11.90;60.30;;;;;;5006023;28;20032;-79
2023/04/18 10:29:49;;;;;;;6.35;3.50;;;11.80;60.70;;;;;;4998438;28;20327;-80
2023/04/18 10:32:21;;;;;;;6.47;3.75;;;12.10;61.10;;;;;;4993072;28;20463;-79
2023/04/18 10:34:47;;;;;;;5.95;3.47;;;12.60;60.80;;;;;;5008756;28;20056;-79
2023/04/18 10:37:13;;;;;;;6.32;3.33;;;12.50;58.80;;;;;;4994026;28;20037;-80
2023/04/18 10:39:57;;;;;;;5.35;3.03;;;12.90;59.00;;;;;;5009058;28;20045;-80
2023/04/18 10:42:50;;;;;;;5.90;3.03;;;12.90;59.50;;;;;;5003175;28;20098;-80
2023/04/18 10:45:20;;;;;;;5.55;3.15;;;12.60;59.00;;;;;;5004165;28;20263;-80
2023/04/18 10:47:46;;;;;;;6.15;3.22;;;12.50;59.90;;;;;;5007238;28;20029;-80
2023/04/18 10:50:12;;;;;;;7.07;3.78;;;12.00;60.40;;;;;;4999276;28;20041;-80
2023/04/18 10:52:37;;;;;;;5.70;3.45;;;12.20;60.90;;;;;;5004791;28;20113;-81
2023/04/18 10:55:12;;;;;;;9.20;3.13;;;12.10;59.90;;;;;;4997153;28;20045;-81
2023/04/18 10:57:42;;;;;;;4.50;3.08;;;12.40;60.60;;;;;;5002012;28;20116;-81
2023/04/18 11:00:13;;;;;;;6.30;3.10;;;12.60;60.80;;;;;;5016399;28;20021;-80
2023/04/18 11:02:46;;;;;;;6.70;3.10;;;12.30;60.90;;;;;;5002439;28;20121;-80
2023/04/18 11:05:17;;;;;;;6.13;3.17;;;12.40;60.80;;;;;;5007732;28;20466;-80
2023/04/18 11:07:44;;;;;;;5.13;3.28;;;12.70;61.30;;;;;;5020619;28;20021;-80
2023/04/18 11:10:10;;;;;;;6.65;3.22;;;12.50;61.10;;;;;;5001888;28;20058;-80
2023/04/18 11:12:38;;;;;;;6.40;3.50;;;12.60;61.00;;;;;;5004769;28;20041;-80
2023/04/18 11:15:11;;;;;;;5.13;3.20;;;12.60;60.50;;;;;;5020498;28;20125;-80
2023/04/18 11:17:41;;;;;;;5.65;3.03;;;12.30;60.20;;;;;;5008052;28;20458;-80
2023/04/18 11:20:13;;;;;;;5.93;3.42;;;12.50;61.30;;;;;;5009262;28;20383;-80
2023/04/18 11:22:50;;;;;;;6.70;3.45;;;12.80;61.60;;;;;;4998911;28;20048;-80
2023/04/18 11:25:18;;;;;;;7.25;3.30;;;12.80;61.50;;;;;;5005157;28;20042;-80
2023/04/18 11:27:50;;;;;;;7.38;3.63;;;13.10;60.10;;;;;;5002234;28;20081;-81
2023/04/18 11:30:16;;;;;;;5.93;3.20;;;12.90;59.60;;;;;;5003083;28;20033;-81
2023/04/18 11:32:41;;;;;;;6.18;3.10;;;12.90;60.10;;;;;;5007642;28;20088;-81
2023/04/18 11:35:08;;;;;;;6.20;3.80;;;12.80;59.00;;;;;;5007581;28;20045;-80
2023/04/18 11:37:35;;;;;;;5.63;3.55;;;12.50;59.90;;;;;;4992846;28;20051;-80
2023/04/18 11:40:01;;;;;;;7.28;3.90;;;12.30;61.00;;;;;;5005484;28;20427;-80
2023/04/18 11:42:27;;;;;;;5.60;3.40;;;12.20;61.10;;;;;;5015860;28;20060;-80
2023/04/18 11:44:53;;;;;;;5.65;3.42;;;12.20;61.70;;;;;;5006603;28;20038;-79
2023/04/18 11:47:33;;;;;;;4.75;3.20;;;12.50;61.60;;;;;;5002673;28;20517;-81
2023/04/18 11:50:01;;;;;;;5.75;3.30;;;12.70;61.90;;;;;;5008283;28;20408;-80
2023/04/18 11:52:29;;;;;;;5.18;3.35;;;12.30;60.50;;;;;;4999583;28;20356;-81
2023/04/18 11:54:55;;;;;;;5.55;3.50;;;12.50;61.10;;;;;;4998975;28;20056;-80
2023/04/18 11:57:24;;;;;;;6.43;3.80;;;12.50;61.80;;;;;;5003092;28;20057;-80
2023/04/18 11:59:53;;;;;;;5.65;3.17;;;12.50;60.80;;;;;;4994895;28;20024;-80
2023/04/18 12:02:20;;;;;;;7.13;3.28;;;12.70;61.40;;;;;;5001537;28;20137;-80
2023/04/18 12:04:53;;;;;;;7.70;3.40;;;12.60;61.30;;;;;;5006743;28;20110;-80
2023/04/18 12:07:41;;;;;;;5.78;3.40;;;12.70;61.00;;;;;;5000778;28;20364;-80
2023/04/18 12:10:28;;;;;;;6.70;3.70;;;12.60;61.20;;;;;;5003587;28;20037;-81
2023/04/18 12:12:57;;;;;;;6.60;3.85;;;12.60;61.70;;;;;;5006976;28;20030;-81
2023/04/18 12:15:26;;;;;;;6.10;3.40;;;12.70;61.80;;;;;;5002283;28;20116;-79
2023/04/18 12:17:59;;;;;;;7.82;3.80;;;12.60;62.90;;;;;;5005577;28;20022;-79
2023/04/18 12:20:36;;;;;;;8.18;3.65;;;12.60;62.30;;;;;;5007358;28;20507;-79
2023/04/18 12:23:02;;;;;;;5.18;3.53;;;12.40;61.40;;;;;;5006150;28;20155;-80
2023/04/18 12:25:28;;;;;;;5.10;3.22;;;12.30;62.80;;;;;;5003330;28;20029;-79
2023/04/18 12:28:02;;;;;;;6.70;3.90;;;12.70;63.10;;;;;;5000580;28;20064;-79
2023/04/18 12:30:33;;;;;;;8.10;4.05;;;13.10;61.90;;;;;;5004872;28;20027;-79
2023/04/18 12:33:03;;;;;;;7.35;3.55;;;13.20;60.60;;;;;;5005405;28;20284;-79
2023/04/18 12:35:30;;;;;;;5.97;3.58;;;13.50;60.90;;;;;;5003556;28;20022;-80
2023/04/18 12:37:57;;;;;;;6.93;3.78;;;13.30;61.00;;;;;;5003017;28;20125;-80
2023/04/18 12:40:24;;;;;;;7.40;3.47;;;13.20;61.80;;;;;;5004168;28;20041;-79